sensor_id;sensor_type;location;lat;lon;timestamp;pressure;altitude;pressure_sealevel;temperature;humidity
5872;BME280;2962;51.312;7.378;2022-08-11T00:00:14;98117.75;;;19.75;100.00
5872;BME280;2962;51.312;7.378;2022-08-11T00:02:49;98122.50;;;19.75;100.00
5872;BME280;2962;51.312;7.378;2022-08-11T00:05:18;98122.22;;;19.66;100.00
5872;BME280;2962;51.312;7.378;2022-08-11T00:07:48;98113.50;;;19.67;100.00
5872;BME280;2962;51.312;7.378;2022-08-11T00:10:20;98115.13;;;19.65;100.00
5872;BME280;2962;51.312;7.378;2022-08-11T00:12:58;98118.72;;;19.62;100.00
5872;BME280;2962;51.312;7.378;2022-08-11T00:15:24;98113.97;;;19.59;100.00
5872;BME280;2962;51.312;7.378;2022-08-11T00:18:00;98112.41;;;19.58;100.00
5872;BME280;2962;51.312;7.378;2022-08-11T00:20:30;98114.75;;;19.59;100.00
5872;BME280;2962;51.312;7.378;2022-08-11T00:23:01;98116.38;;;19.57;100.00
5872;BME280;2962;51.312;7.378;2022-08-11T00:25:30;98104.16;;;19.54;100.00
5872;BME280;2962;51.312;7.378;2022-08-11T00:28:01;98110.44;;;19.62;100.00
5872;BME280;2962;51.312;7.378;2022-08-11T00:30:37;98118.69;;;19.65;100.00
5872;BME280;2962;51.312;7.378;2022-08-11T00:33:03;98101.31;;;19.61;100.00
5872;BME280;2962;51.312;7.378;2022-08-11T00:35:29;98122.97;;;19.70;100.00
5872;BME280;2962;51.312;7.378;2022-08-11T00:37:57;98117.84;;;19.68;100.00
5872;BME280;2962;51.312;7.378;2022-08-11T00:40:32;98105.22;;;19.67;100.00
5872;BME280;2962;51.312;7.378;2022-08-11T00:43:14;98107.16;;;19.70;100.00
5872;BME280;2962;51.312;7.378;2022-08-11T00:46:17;98107.16;;;19.70;100.00
5872;BME280;2962;51.312;7.378;2022-08-11T00:51:32;98101.72;;;19.60;100.00
5872;BME280;2962;51.312;7.378;2022-08-11T00:54:07;98117.91;;;19.61;100.00
5872;BME280;2962;51.312;7.378;2022-08-11T01:00:16;98117.97;;;19.54;100.00
5872;BME280;2962;51.312;7.378;2022-08-11T01:02:45;98112.88;;;19.52;100.00
5872;BME280;2962;51.312;7.378;2022-08-11T01:08:17;98106.97;;;19.50;100.00
5872;BME280;2962;51.312;7.378;2022-08-11T01:11:04;98105.44;;;19.46;100.00
5872;BME280;2962;51.312;7.378;2022-08-11T01:16:37;98107.72;;;19.55;100.00
5872;BME280;2962;51.312;7.378;2022-08-11T01:28:06;98108.97;;;19.46;100.00
5872;BME280;2962;51.312;7.378;2022-08-11T01:31:21;98105.44;;;19.46;100.00
5872;BME280;2962;51.312;7.378;2022-08-11T01:34:19;98109.81;;;19.43;100.00
5872;BME280;2962;51.312;7.378;2022-08-11T01:37:21;98108.63;;;19.41;100.00
5872;BME280;2962;51.312;7.378;2022-08-11T01:46:10;98096.06;;;19.36;100.00
5872;BME280;2962;51.312;7.378;2022-08-11T01:51:37;98098.81;;;19.36;100.00
5872;BME280;2962;51.312;7.378;2022-08-11T01:54:36;98105.50;;;19.39;100.00
5872;BME280;2962;51.312;7.378;2022-08-11T01:57:12;98107.91;;;19.33;100.00
5872;BME280;2962;51.312;7.378;2022-08-11T01:59:45;98094.53;;;19.32;100.00
5872;BME280;2962;51.312;7.378;2022-08-11T02:05:42;98113.09;;;19.31;100.00
5872;BME280;2962;51.312;7.378;2022-08-11T02:08:20;98097.72;;;19.30;100.00
5872;BME280;2962;51.312;7.378;2022-08-11T02:11:18;98104.41;;;19.29;100.00
5872;BME280;2962;51.312;7.378;2022-08-11T02:22:37;98120.75;;;19.13;100.00
5872;BME280;2962;51.312;7.378;2022-08-11T02:25:44;98113.75;;;19.01;100.00
5872;BME280;2962;51.312;7.378;2022-08-11T02:28:22;98100.06;;;18.87;100.00
5872;BME280;2962;51.312;7.378;2022-08-11T02:31:06;98113.06;;;18.90;100.00
5872;BME280;2962;51.312;7.378;2022-08-11T02:34:02;98117.09;;;18.82;100.00
5872;BME280;2962;51.312;7.378;2022-08-11T02:36:43;98110.34;;;18.86;100.00
5872;BME280;2962;51.312;7.378;2022-08-11T02:39:17;98106.78;;;18.86;100.00
5872;BME280;2962;51.312;7.378;2022-08-11T02:42:09;98107.22;;;18.84;100.00
5872;BME280;2962;51.312;7.378;2022-08-11T02:44:56;98102.06;;;18.83;100.00
5872;BME280;2962;51.312;7.378;2022-08-11T02:47:45;98104.47;;;18.81;100.00
5872;BME280;2962;51.312;7.378;2022-08-11T02:50:36;98102.84;;;18.83;100.00
5872;BME280;2962;51.312;7.378;2022-08-11T02:53:21;98093.38;;;18.88;100.00
5872;BME280;2962;51.312;7.378;2022-08-11T02:55:56;98104.41;;;18.91;100.00
5872;BME280;2962;51.312;7.378;2022-08-11T03:02:03;98101.69;;;18.84;100.00
5872;BME280;2962;51.312;7.378;2022-08-11T03:07:40;98095.03;;;18.78;100.00
5872;BME280;2962;51.312;7.378;2022-08-11T03:10:17;98104.47;;;18.81;100.00
5872;BME280;2962;51.312;7.378;2022-08-11T03:12:50;98105.94;;;18.92;100.00
5872;BME280;2962;51.312;7.378;2022-08-11T03:15:51;98105.94;;;18.92;100.00
5872;BME280;2962;51.312;7.378;2022-08-11T03:18:47;98107.91;;;18.95;100.00
5872;BME280;2962;51.312;7.378;2022-08-11T03:21:28;98097.63;;;18.99;100.00
5872;BME280;2962;51.312;7.378;2022-08-11T03:26:48;98107.50;;;18.97;100.00
5872;BME280;2962;51.312;7.378;2022-08-11T03:29:34;98090.63;;;18.88;100.00
5872;BME280;2962;51.312;7.378;2022-08-11T03:32:08;98091.41;;;18.88;100.00
5872;BME280;2962;51.312;7.378;2022-08-11T03:34:38;98089.00;;;18.90;100.00
5872;BME280;2962;51.312;7.378;2022-08-11T03:37:29;98101.69;;;18.84;100.00
5872;BME280;2962;51.312;7.378;2022-08-11T03:43:17;98098.94;;;18.84;100.00
5872;BME280;2962;51.312;7.378;2022-08-11T03:45:57;98099.69;;;18.88;100.00
5872;BME280;2962;51.312;7.378;2022-08-11T03:48:40;98099.75;;;18.81;100.00
5872;BME280;2962;51.312;7.378;2022-08-11T03:51:29;98095.47;;;18.73;100.00
5872;BME280;2962;51.312;7.378;2022-08-11T03:54:07;98097.84;;;18.64;100.00
5872;BME280;2962;51.312;7.378;2022-08-11T03:57:07;98094.34;;;18.60;100.00
5872;BME280;2962;51.312;7.378;2022-08-11T04:00:13;98089.69;;;18.53;100.00
5872;BME280;2962;51.312;7.378;2022-08-11T04:17:23;98097.53;;;18.54;100.00
5872;BME280;2962;51.312;7.378;2022-08-11T04:28:23;98101.97;;;18.41;100.00
5872;BME280;2962;51.312;7.378;2022-08-11T04:31:15;98100.03;;;18.35;100.00
5872;BME280;2962;51.312;7.378;2022-08-11T04:33:58;98098.91;;;18.25;100.00
5872;BME280;2962;51.312;7.378;2022-08-11T04:43:05;98098.38;;;18.48;100.00
5872;BME280;2962;51.312;7.378;2022-08-11T04:46:13;98100.69;;;18.57;100.00
5872;BME280;2962;51.312;7.378;2022-08-11T04:49:17;98097.94;;;18.57;100.00
5872;BME280;2962;51.312;7.378;2022-08-11T04:52:36;98102.22;;;18.61;100.00
5872;BME280;2962;51.312;7.378;2022-08-11T05:02:23;98102.09;;;18.79;100.00
5872;BME280;2962;51.312;7.378;2022-08-11T05:16:58;98111.41;;;18.99;100.00
5872;BME280;2962;51.312;7.378;2022-08-11T05:19:46;98111.34;;;19.07;100.00
5872;BME280;2962;51.312;7.378;2022-08-11T05:22:32;98101.50;;;19.02;100.00
5872;BME280;2962;51.312;7.378;2022-08-11T05:25:21;98118.38;;;19.15;100.00
5872;BME280;2962;51.312;7.378;2022-08-11T05:31:06;98119.13;;;19.19;100.00
5872;BME280;2962;51.312;7.378;2022-08-11T05:33:56;98115.88;;;19.27;100.00
5872;BME280;2962;51.312;7.378;2022-08-11T05:36:54;98115.03;;;19.34;100.00
5872;BME280;2962;51.312;7.378;2022-08-11T05:39:23;98113.84;;;19.35;100.00
5872;BME280;2962;51.312;7.378;2022-08-11T05:42:08;98120.00;;;19.50;100.00
5872;BME280;2962;51.312;7.378;2022-08-11T05:44:58;98121.53;;;19.55;100.00
5872;BME280;2962;51.312;7.378;2022-08-11T05:47:48;98118.72;;;19.58;100.00
5872;BME280;2962;51.312;7.378;2022-08-11T05:50:32;98119.00;;;19.71;100.00
5872;BME280;2962;51.312;7.378;2022-08-11T05:53:16;98126.00;;;19.79;100.00
5872;BME280;2962;51.312;7.378;2022-08-11T05:56:04;98121.59;;;19.85;100.00
5872;BME280;2962;51.312;7.378;2022-08-11T05:58:48;98130.56;;;19.96;100.00
5872;BME280;2962;51.312;7.378;2022-08-11T06:03:52;98122.91;;;20.08;100.00
5872;BME280;2962;51.312;7.378;2022-08-11T06:06:38;98129.91;;;20.16;100.00
5872;BME280;2962;51.312;7.378;2022-08-11T06:09:06;98124.75;;;20.18;100.00
5872;BME280;2962;51.312;7.378;2022-08-11T06:11:40;98131.38;;;20.24;100.00
5872;BME280;2962;51.312;7.378;2022-08-11T06:14:07;98124.97;;;20.31;100.00
5872;BME280;2962;51.312;7.378;2022-08-11T06:16:35;98134.31;;;20.40;100.00
5872;BME280;2962;51.312;7.378;2022-08-11T06:19:03;98128.31;;;20.45;100.00
5872;BME280;2962;51.312;7.378;2022-08-11T06:21:32;98126.63;;;20.55;100.00
5872;BME280;2962;51.312;7.378;2022-08-11T06:23:58;98128.03;;;20.67;100.00
5872;BME280;2962;51.312;7.378;2022-08-11T06:26:24;98119.97;;;20.76;100.00
5872;BME280;2962;51.312;7.378;2022-08-11T06:28:50;98123.00;;;20.85;100.00
5872;BME280;2962;51.312;7.378;2022-08-11T06:31:18;98129.19;;;20.93;100.00
5872;BME280;2962;51.312;7.378;2022-08-11T06:39:16;98115.72;;;21.18;100.00
5872;BME280;2962;51.312;7.378;2022-08-11T06:41:50;98115.16;;;21.27;100.00
5872;BME280;2962;51.312;7.378;2022-08-11T06:44:29;98114.22;;;21.37;100.00
5872;BME280;2962;51.312;7.378;2022-08-11T06:47:05;98106.63;;;21.41;100.00
5872;BME280;2962;51.312;7.378;2022-08-11T06:49:34;98124.13;;;21.58;98.73
5872;BME280;2962;51.312;7.378;2022-08-11T06:52:28;98121.13;;;21.69;97.29
5872;BME280;2962;51.312;7.378;2022-08-11T06:54:57;98119.28;;;21.82;98.34
5872;BME280;2962;51.312;7.378;2022-08-11T06:57:31;98127.38;;;21.93;96.75
5872;BME280;2962;51.312;7.378;2022-08-11T07:00:17;98128.66;;;22.08;95.74
5872;BME280;2962;51.312;7.378;2022-08-11T07:03:11;98123.78;;;22.16;90.86
5872;BME280;2962;51.312;7.378;2022-08-11T07:05:47;98127.81;;;22.31;91.89
5872;BME280;2962;51.312;7.378;2022-08-11T07:08:52;98131.66;;;22.37;89.63
5872;BME280;2962;51.312;7.378;2022-08-11T07:12:01;98128.28;;;22.62;89.69
5872;BME280;2962;51.312;7.378;2022-08-11T07:14:51;98127.00;;;22.83;88.45
5872;BME280;2962;51.312;7.378;2022-08-11T07:17:41;98122.16;;;23.04;84.31
5872;BME280;2962;51.312;7.378;2022-08-11T07:20:08;98122.50;;;23.06;82.35
5872;BME280;2962;51.312;7.378;2022-08-11T07:22:58;98128.66;;;23.13;82.97
5872;BME280;2962;51.312;7.378;2022-08-11T07:25:49;98121.50;;;23.29;82.95
5872;BME280;2962;51.312;7.378;2022-08-11T07:28:36;98124.41;;;23.54;82.06
5872;BME280;2962;51.312;7.378;2022-08-11T07:31:45;98138.66;;;23.73;78.98
5872;BME280;2962;51.312;7.378;2022-08-11T07:34:24;98132.91;;;23.80;76.35
5872;BME280;2962;51.312;7.378;2022-08-11T07:36:57;98133.59;;;23.84;75.66
5872;BME280;2962;51.312;7.378;2022-08-11T07:39:26;98126.97;;;24.07;77.83
5872;BME280;2962;51.312;7.378;2022-08-11T07:41:54;98119.19;;;24.27;76.20
5872;BME280;2962;51.312;7.378;2022-08-11T07:44:22;98122.47;;;24.39;70.78
5872;BME280;2962;51.312;7.378;2022-08-11T07:46:51;98119.56;;;24.42;69.57
5872;BME280;2962;51.312;7.378;2022-08-11T07:49:37;98115.66;;;24.40;69.38
5872;BME280;2962;51.312;7.378;2022-08-11T07:52:24;98111.97;;;24.55;68.33
5872;BME280;2962;51.312;7.378;2022-08-11T07:55:03;98114.66;;;24.72;67.17
5872;BME280;2962;51.312;7.378;2022-08-11T07:57:30;98121.19;;;25.03;63.97
5872;BME280;2962;51.312;7.378;2022-08-11T08:00:15;98114.47;;;25.26;65.17
5872;BME280;2962;51.312;7.378;2022-08-11T08:03:00;98113.06;;;25.44;62.01
5872;BME280;2962;51.312;7.378;2022-08-11T08:05:46;98126.88;;;25.60;61.66
5872;BME280;2962;51.312;7.378;2022-08-11T08:08:31;98120.44;;;25.72;59.20
5872;BME280;2962;51.312;7.378;2022-08-11T08:11:15;98118.13;;;25.93;56.87
5872;BME280;2962;51.312;7.378;2022-08-11T08:14:02;98124.66;;;26.21;58.60
5872;BME280;2962;51.312;7.378;2022-08-11T08:16:46;98132.75;;;26.28;55.05
5872;BME280;2962;51.312;7.378;2022-08-11T08:19:30;98130.81;;;26.38;56.49
5872;BME280;2962;51.312;7.378;2022-08-11T08:21:57;98120.13;;;26.76;52.36
5872;BME280;2962;51.312;7.378;2022-08-11T08:24:23;98116.69;;;26.72;52.71
5872;BME280;2962;51.312;7.378;2022-08-11T08:26:49;98128.00;;;26.69;49.78
5872;BME280;2962;51.312;7.378;2022-08-11T08:29:26;98123.47;;;26.62;46.91
5872;BME280;2962;51.312;7.378;2022-08-11T08:32:11;98123.56;;;26.81;48.35
5872;BME280;2962;51.312;7.378;2022-08-11T08:34:38;98131.56;;;26.60;48.04
5872;BME280;2962;51.312;7.378;2022-08-11T08:37:05;98128.28;;;26.62;46.68
5872;BME280;2962;51.312;7.378;2022-08-11T08:39:31;98131.31;;;26.86;47.73
5872;BME280;2962;51.312;7.378;2022-08-11T08:42:05;98136.91;;;26.76;44.60
5872;BME280;2962;51.312;7.378;2022-08-11T08:44:33;98134.22;;;27.13;44.69
5872;BME280;2962;51.312;7.378;2022-08-11T08:47:02;98134.03;;;26.98;41.65
5872;BME280;2962;51.312;7.378;2022-08-11T08:49:34;98129.41;;;27.14;42.69
5872;BME280;2962;51.312;7.378;2022-08-11T08:52:02;98135.88;;;27.01;41.50
5872;BME280;2962;51.312;7.378;2022-08-11T08:54:34;98140.38;;;26.99;41.88
5872;BME280;2962;51.312;7.378;2022-08-11T08:57:02;98131.72;;;27.06;41.06
5872;BME280;2962;51.312;7.378;2022-08-11T08:59:30;98134.13;;;27.54;42.78
5872;BME280;2962;51.312;7.378;2022-08-11T09:01:59;98134.72;;;28.04;40.95
5872;BME280;2962;51.312;7.378;2022-08-11T09:04:26;98127.69;;;28.27;41.08
5872;BME280;2962;51.312;7.378;2022-08-11T09:06:57;98142.59;;;28.42;39.04
5872;BME280;2962;51.312;7.378;2022-08-11T09:09:23;98128.97;;;28.59;39.39
5872;BME280;2962;51.312;7.378;2022-08-11T09:11:50;98135.66;;;29.04;36.29
5872;BME280;2962;51.312;7.378;2022-08-11T09:14:37;98142.34;;;29.06;36.35
5872;BME280;2962;51.312;7.378;2022-08-11T09:17:22;98134.44;;;29.43;36.21
5872;BME280;2962;51.312;7.378;2022-08-11T09:19:50;98134.94;;;29.42;35.37
5872;BME280;2962;51.312;7.378;2022-08-11T09:22:24;98125.09;;;28.99;35.79
5872;BME280;2962;51.312;7.378;2022-08-11T09:25:08;98131.03;;;28.58;36.55
5872;BME280;2962;51.312;7.378;2022-08-11T09:27:53;98131.06;;;28.49;37.18
5872;BME280;2962;51.312;7.378;2022-08-11T09:30:22;98129.41;;;28.66;36.46
5872;BME280;2962;51.312;7.378;2022-08-11T09:32:52;98127.00;;;29.16;37.91
5872;BME280;2962;51.312;7.378;2022-08-11T09:35:25;98109.94;;;29.29;35.98
5872;BME280;2962;51.312;7.378;2022-08-11T09:37:53;98117.53;;;29.14;34.50
5872;BME280;2962;51.312;7.378;2022-08-11T09:40:40;98110.22;;;29.07;34.58
5872;BME280;2962;51.312;7.378;2022-08-11T09:43:09;98111.34;;;29.01;35.38
5872;BME280;2962;51.312;7.378;2022-08-11T09:45:55;98111.38;;;28.67;34.00
5872;BME280;2962;51.312;7.378;2022-08-11T09:48:26;98116.13;;;29.09;35.96
5872;BME280;2962;51.312;7.378;2022-08-11T09:50:58;98115.66;;;29.35;34.23
5872;BME280;2962;51.312;7.378;2022-08-11T09:53:26;98116.56;;;29.41;34.25
5872;BME280;2962;51.312;7.378;2022-08-11T09:55:52;98112.13;;;29.88;34.89
5872;BME280;2962;51.312;7.378;2022-08-11T09:58:18;98115.59;;;29.98;33.60
5872;BME280;2962;51.312;7.378;2022-08-11T10:00:48;98111.28;;;30.26;32.60
5872;BME280;2962;51.312;7.378;2022-08-11T10:03:17;98127.88;;;30.89;32.18
5872;BME280;2962;51.312;7.378;2022-08-11T10:05:46;98122.19;;;31.04;31.21
5872;BME280;2962;51.312;7.378;2022-08-11T10:08:31;98110.16;;;31.24;32.23
5872;BME280;2962;51.312;7.378;2022-08-11T10:10:58;98113.44;;;31.37;31.07
5872;BME280;2962;51.312;7.378;2022-08-11T10:13:30;98113.56;;;31.69;29.43
5872;BME280;2962;51.312;7.378;2022-08-11T10:16:01;98110.72;;;31.28;29.83
5872;BME280;2962;51.312;7.378;2022-08-11T10:18:36;98095.53;;;31.40;29.89
5872;BME280;2962;51.312;7.378;2022-08-11T10:21:25;98113.13;;;31.15;30.30
5872;BME280;2962;51.312;7.378;2022-08-11T10:23:53;98113.59;;;31.74;28.89
5872;BME280;2962;51.312;7.378;2022-08-11T10:26:38;98106.59;;;31.23;28.91
5872;BME280;2962;51.312;7.378;2022-08-11T10:29:22;98110.34;;;31.35;29.20
5872;BME280;2962;51.312;7.378;2022-08-11T10:32:08;98107.44;;;31.96;28.64
5872;BME280;2962;51.312;7.378;2022-08-11T10:34:54;98108.47;;;32.25;28.31
5872;BME280;2962;51.312;7.378;2022-08-11T10:37:22;98103.28;;;32.44;28.59
5872;BME280;2962;51.312;7.378;2022-08-11T10:39:49;98097.25;;;31.99;28.14
5872;BME280;2962;51.312;7.378;2022-08-11T10:42:15;98094.78;;;31.86;29.07
5872;BME280;2962;51.312;7.378;2022-08-11T10:45:03;98093.31;;;32.48;29.16
5872;BME280;2962;51.312;7.378;2022-08-11T10:47:49;98092.91;;;32.61;29.28
5872;BME280;2962;51.312;7.378;2022-08-11T10:50:15;98094.50;;;33.11;28.92
5872;BME280;2962;51.312;7.378;2022-08-11T10:52:59;98099.91;;;33.14;27.66
5872;BME280;2962;51.312;7.378;2022-08-11T10:55:44;98082.59;;;32.58;27.92
5872;BME280;2962;51.312;7.378;2022-08-11T10:58:30;98094.97;;;32.34;28.52
5872;BME280;2962;51.312;7.378;2022-08-11T11:01:17;98084.50;;;33.10;26.83
5872;BME280;2962;51.312;7.378;2022-08-11T11:03:54;98077.81;;;33.13;27.80
5872;BME280;2962;51.312;7.378;2022-08-11T11:09:39;98072.91;;;33.67;27.58
5872;BME280;2962;51.312;7.378;2022-08-11T11:14:53;98062.56;;;35.05;25.62
5872;BME280;2962;51.312;7.378;2022-08-11T11:17:52;98061.59;;;34.85;26.20
5872;BME280;2962;51.312;7.378;2022-08-11T11:20:35;98052.19;;;35.24;25.79
5872;BME280;2962;51.312;7.378;2022-08-11T11:28:48;98049.72;;;34.92;25.41
5872;BME280;2962;51.312;7.378;2022-08-11T11:34:05;98037.31;;;35.12;25.72
5872;BME280;2962;51.312;7.378;2022-08-11T11:36:55;98033.22;;;35.96;25.29
5872;BME280;2962;51.312;7.378;2022-08-11T11:39:23;98038.97;;;35.43;25.70
5872;BME280;2962;51.312;7.378;2022-08-11T11:41:52;98031.44;;;35.99;25.67
5872;BME280;2962;51.312;7.378;2022-08-11T11:44:19;98028.25;;;35.25;25.67
5872;BME280;2962;51.312;7.378;2022-08-11T11:46:45;98027.28;;;35.64;25.21
5872;BME280;2962;51.312;7.378;2022-08-11T11:49:12;98033.81;;;35.42;26.05
5872;BME280;2962;51.312;7.378;2022-08-11T11:51:40;98031.69;;;35.95;24.98
5872;BME280;2962;51.312;7.378;2022-08-11T11:54:05;98022.94;;;36.78;23.93
5872;BME280;2962;51.312;7.378;2022-08-11T11:56:32;98009.56;;;36.24;24.40
5872;BME280;2962;51.312;7.378;2022-08-11T11:58:58;98019.28;;;35.68;25.25
5872;BME280;2962;51.312;7.378;2022-08-11T12:01:42;98012.63;;;36.26;24.06
5872;BME280;2962;51.312;7.378;2022-08-11T12:04:10;98015.84;;;37.33;22.80
5872;BME280;2962;51.312;7.378;2022-08-11T12:06:36;98019.19;;;37.13;23.19
5872;BME280;2962;51.312;7.378;2022-08-11T12:09:03;97997.25;;;36.95;24.09
5872;BME280;2962;51.312;7.378;2022-08-11T12:11:30;98012.63;;;36.56;24.12
5872;BME280;2962;51.312;7.378;2022-08-11T12:14:19;97999.63;;;36.85;23.71
5872;BME280;2962;51.312;7.378;2022-08-11T12:16:46;97999.91;;;38.14;22.78
5872;BME280;2962;51.312;7.378;2022-08-11T12:19:17;97998.59;;;38.15;22.25
5872;BME280;2962;51.312;7.378;2022-08-11T12:21:47;97993.06;;;38.62;21.65
5872;BME280;2962;51.312;7.378;2022-08-11T12:24:33;97982.81;;;37.30;22.84
5872;BME280;2962;51.312;7.378;2022-08-11T12:27:18;97995.16;;;36.22;23.69
5872;BME280;2962;51.312;7.378;2022-08-11T12:29:49;97989.41;;;36.76;23.19
5872;BME280;2962;51.312;7.378;2022-08-11T12:32:16;97984.81;;;38.32;22.32
5872;BME280;2962;51.312;7.378;2022-08-11T12:34:42;97984.53;;;38.75;22.35
5872;BME280;2962;51.312;7.378;2022-08-11T12:37:08;97992.03;;;39.39;21.29
5872;BME280;2962;51.312;7.378;2022-08-11T12:39:41;97976.22;;;38.51;21.77
5872;BME280;2962;51.312;7.378;2022-08-11T12:42:27;97981.69;;;38.62;21.71
5872;BME280;2962;51.312;7.378;2022-08-11T12:45:13;97974.22;;;40.51;19.89
5872;BME280;2962;51.312;7.378;2022-08-11T12:48:04;97967.16;;;39.61;20.93
5872;BME280;2962;51.312;7.378;2022-08-11T12:51:09;97969.34;;;40.95;20.10
5872;BME280;2962;51.312;7.378;2022-08-11T12:56:39;97972.78;;;39.53;21.37
5872;BME280;2962;51.312;7.378;2022-08-11T12:59:24;97953.75;;;40.60;19.01
5872;BME280;2962;51.312;7.378;2022-08-11T13:02:13;97957.25;;;41.10;19.40
5872;BME280;2962;51.312;7.378;2022-08-11T13:05:00;97956.28;;;40.43;20.21
5872;BME280;2962;51.312;7.378;2022-08-11T13:07:26;97948.50;;;40.80;19.99
5872;BME280;2962;51.312;7.378;2022-08-11T13:09:54;97946.09;;;40.55;20.07
5872;BME280;2962;51.312;7.378;2022-08-11T13:12:22;97945.88;;;40.24;20.68
5872;BME280;2962;51.312;7.378;2022-08-11T13:15:06;97935.72;;;40.16;20.17
5872;BME280;2962;51.312;7.378;2022-08-11T13:17:33;97939.00;;;40.85;20.22
5872;BME280;2962;51.312;7.378;2022-08-11T13:20:00;97936.94;;;41.37;19.19
5872;BME280;2962;51.312;7.378;2022-08-11T13:22:27;97943.84;;;41.64;20.12
5872;BME280;2962;51.312;7.378;2022-08-11T13:24:54;97943.44;;;40.57;19.68
5872;BME280;2962;51.312;7.378;2022-08-11T13:27:22;97938.63;;;40.52;20.52
5872;BME280;2962;51.312;7.378;2022-08-11T13:29:49;97935.09;;;41.03;19.48
5872;BME280;2962;51.312;7.378;2022-08-11T13:32:19;97937.00;;;41.75;18.95
5872;BME280;2962;51.312;7.378;2022-08-11T13:34:45;97937.16;;;42.54;18.65
5872;BME280;2962;51.312;7.378;2022-08-11T13:37:13;97927.94;;;42.71;17.86
5872;BME280;2962;51.312;7.378;2022-08-11T13:39:41;97929.34;;;42.47;18.13
5872;BME280;2962;51.312;7.378;2022-08-11T13:42:13;97917.81;;;43.25;17.70
5872;BME280;2962;51.312;7.378;2022-08-11T13:44:40;97920.34;;;42.50;18.89
5872;BME280;2962;51.312;7.378;2022-08-11T13:47:07;97918.47;;;43.41;17.70
5872;BME280;2962;51.312;7.378;2022-08-11T13:49:38;97916.97;;;42.92;17.99
5872;BME280;2962;51.312;7.378;2022-08-11T13:52:04;97912.31;;;42.56;18.65
5872;BME280;2962;51.312;7.378;2022-08-11T13:54:34;97921.19;;;41.97;18.50
5872;BME280;2962;51.312;7.378;2022-08-11T13:57:04;97914.16;;;43.57;16.82
5872;BME280;2962;51.312;7.378;2022-08-11T13:59:30;97904.31;;;43.10;18.33
5872;BME280;2962;51.312;7.378;2022-08-11T14:02:02;97912.94;;;41.55;18.40
5872;BME280;2962;51.312;7.378;2022-08-11T14:04:38;97907.22;;;42.32;18.31
5872;BME280;2962;51.312;7.378;2022-08-11T14:07:06;97911.28;;;41.98;18.06
5872;BME280;2962;51.312;7.378;2022-08-11T14:09:41;97908.00;;;41.71;18.13
5872;BME280;2962;51.312;7.378;2022-08-11T14:12:20;97896.75;;;42.27;17.86
5872;BME280;2962;51.312;7.378;2022-08-11T14:15:53;97898.88;;;41.95;18.83
5872;BME280;2962;51.312;7.378;2022-08-11T14:18:04;97899.59;;;42.98;18.46
5872;BME280;2962;51.312;7.378;2022-08-11T14:20:32;97900.19;;;43.29;18.26
5872;BME280;2962;51.312;7.378;2022-08-11T14:23:18;97884.09;;;42.93;17.89
5872;BME280;2962;51.312;7.378;2022-08-11T14:25:48;97896.13;;;42.99;17.93
5872;BME280;2962;51.312;7.378;2022-08-11T14:28:33;97890.81;;;43.28;17.37
5872;BME280;2962;51.312;7.378;2022-08-11T14:31:00;97895.00;;;42.39;18.12
5872;BME280;2962;51.312;7.378;2022-08-11T14:33:25;97904.28;;;42.55;18.41
5872;BME280;2962;51.312;7.378;2022-08-11T14:35:51;97902.66;;;41.75;18.15
5872;BME280;2962;51.312;7.378;2022-08-11T14:38:17;97885.47;;;42.21;18.36
5872;BME280;2962;51.312;7.378;2022-08-11T14:40:45;97889.63;;;42.99;17.76
5872;BME280;2962;51.312;7.378;2022-08-11T14:43:30;97893.41;;;44.34;16.59
5872;BME280;2962;51.312;7.378;2022-08-11T14:46:15;97886.94;;;44.08;16.67
5872;BME280;2962;51.312;7.378;2022-08-11T14:48:59;97884.81;;;43.09;17.35
5872;BME280;2962;51.312;7.378;2022-08-11T14:51:25;97888.19;;;43.55;17.23
5872;BME280;2962;51.312;7.378;2022-08-11T14:53:50;97881.94;;;43.42;17.13
5872;BME280;2962;51.312;7.378;2022-08-11T14:56:36;97878.22;;;42.12;17.35
5872;BME280;2962;51.312;7.378;2022-08-11T14:59:02;97875.78;;;43.45;17.43
5872;BME280;2962;51.312;7.378;2022-08-11T15:01:28;97865.63;;;43.19;17.80
5872;BME280;2962;51.312;7.378;2022-08-11T15:04:12;97864.31;;;42.80;17.51
5872;BME280;2962;51.312;7.378;2022-08-11T15:06:37;97873.84;;;41.65;18.14
5872;BME280;2962;51.312;7.378;2022-08-11T15:09:03;97852.44;;;40.61;18.77
5872;BME280;2962;51.312;7.378;2022-08-11T15:11:31;97859.00;;;39.42;20.42
5872;BME280;2962;51.312;7.378;2022-08-11T15:14:15;97868.63;;;40.66;19.50
5872;BME280;2962;51.312;7.378;2022-08-11T15:17:05;97871.50;;;41.18;19.04
5872;BME280;2962;51.312;7.378;2022-08-11T15:19:36;97863.19;;;40.84;19.08
5872;BME280;2962;51.312;7.378;2022-08-11T15:22:23;97855.75;;;39.38;20.00
5872;BME280;2962;51.312;7.378;2022-08-11T15:25:07;97849.34;;;39.24;20.48
5872;BME280;2962;51.312;7.378;2022-08-11T15:27:34;97853.59;;;39.30;20.05
5872;BME280;2962;51.312;7.378;2022-08-11T15:30:20;97834.50;;;40.17;19.81
5872;BME280;2962;51.312;7.378;2022-08-11T15:33:08;97848.88;;;40.40;20.19
5872;BME280;2962;51.312;7.378;2022-08-11T15:35:53;97847.16;;;40.08;19.56
5872;BME280;2962;51.312;7.378;2022-08-11T15:39:00;97841.84;;;39.34;20.12
5872;BME280;2962;51.312;7.378;2022-08-11T15:41:44;97839.69;;;38.93;20.46
5872;BME280;2962;51.312;7.378;2022-08-11T15:44:32;97837.66;;;38.67;21.79
5872;BME280;2962;51.312;7.378;2022-08-11T15:47:17;97833.88;;;38.11;20.85
5872;BME280;2962;51.312;7.378;2022-08-11T15:49:46;97836.94;;;38.26;21.34
5872;BME280;2962;51.312;7.378;2022-08-11T15:52:17;97814.09;;;37.92;21.48
5872;BME280;2962;51.312;7.378;2022-08-11T15:54:43;97815.72;;;38.01;21.69
5872;BME280;2962;51.312;7.378;2022-08-11T15:57:12;97825.25;;;37.90;21.97
5872;BME280;2962;51.312;7.378;2022-08-11T16:00:02;97820.69;;;37.55;22.43
5872;BME280;2962;51.312;7.378;2022-08-11T16:02:49;97818.00;;;38.29;22.03
5872;BME280;2962;51.312;7.378;2022-08-11T16:05:35;97820.91;;;38.97;22.00
5872;BME280;2962;51.312;7.378;2022-08-11T16:08:01;97807.13;;;39.22;21.35
5872;BME280;2962;51.312;7.378;2022-08-11T16:10:28;97822.41;;;39.12;21.38
5872;BME280;2962;51.312;7.378;2022-08-11T16:12:59;97820.88;;;38.76;21.25
5872;BME280;2962;51.312;7.378;2022-08-11T16:15:54;97808.38;;;37.79;21.55
5872;BME280;2962;51.312;7.378;2022-08-11T16:18:45;97802.84;;;38.61;21.79
5872;BME280;2962;51.312;7.378;2022-08-11T16:21:15;97807.66;;;37.46;21.93
5872;BME280;2962;51.312;7.378;2022-08-11T16:23:43;97803.66;;;37.81;21.94